sensor_id;sensor_type;location;lat;lon;timestamp;pressure;altitude;pressure_sealevel;temperature;humidity
21555;BME280;10938;44.794;-0.676;2022-10-20T00:01:11;100950.00;;;28.92;49.35
21555;BME280;10938;44.794;-0.676;2022-10-20T00:03:37;100962.56;;;28.91;52.69
21555;BME280;10938;44.794;-0.676;2022-10-20T00:09:14;100974.81;;;26.47;56.44
21555;BME280;10938;44.794;-0.676;2022-10-20T00:12:01;100970.75;;;26.01;57.06
21555;BME280;10938;44.794;-0.676;2022-10-20T00:14:49;100983.00;;;26.25;57.17
21555;BME280;10938;44.794;-0.676;2022-10-20T00:17:18;100979.19;;;26.31;56.40
21555;BME280;10938;44.794;-0.676;2022-10-20T00:19:47;100970.78;;;26.74;55.20
21555;BME280;10938;44.794;-0.676;2022-10-20T00:22:15;100965.38;;;26.21;57.70
21555;BME280;10938;44.794;-0.676;2022-10-20T00:24:46;100976.41;;;25.95;58.16
21555;BME280;10938;44.794;-0.676;2022-10-20T00:27:19;100977.16;;;26.17;56.83
21555;BME280;10938;44.794;-0.676;2022-10-20T00:29:50;100984.25;;;26.18;56.69
21555;BME280;10938;44.794;-0.676;2022-10-20T00:32:23;100958.00;;;25.69;58.56
21555;BME280;10938;44.794;-0.676;2022-10-20T00:35:02;100964.91;;;25.54;58.43
21555;BME280;10938;44.794;-0.676;2022-10-20T00:37:36;100958.25;;;24.82;59.40
21555;BME280;10938;44.794;-0.676;2022-10-20T00:40:04;100966.94;;;24.87;60.63
21555;BME280;10938;44.794;-0.676;2022-10-20T00:42:30;100981.47;;;25.42;58.05
21555;BME280;10938;44.794;-0.676;2022-10-20T00:45:00;100981.69;;;25.57;57.60
21555;BME280;10938;44.794;-0.676;2022-10-20T00:47:38;100979.78;;;25.19;58.47
21555;BME280;10938;44.794;-0.676;2022-10-20T00:52:52;100970.75;;;24.80;59.12
21555;BME280;10938;44.794;-0.676;2022-10-20T00:55:31;100964.59;;;24.13;61.04
21555;BME280;10938;44.794;-0.676;2022-10-20T00:57:59;100941.38;;;24.16;62.29
21555;BME280;10938;44.794;-0.676;2022-10-20T01:00:27;100935.22;;;23.44;62.15
21555;BME280;10938;44.794;-0.676;2022-10-20T01:02:55;100925.47;;;22.94;63.95
21555;BME280;10938;44.794;-0.676;2022-10-20T01:05:23;100894.63;;;23.13;62.72
21555;BME280;10938;44.794;-0.676;2022-10-20T01:07:54;100875.28;;;23.33;61.04
21555;BME280;10938;44.794;-0.676;2022-10-20T01:10:21;100884.78;;;23.41;61.38
21555;BME280;10938;44.794;-0.676;2022-10-20T01:13:01;100877.31;;;23.51;60.54
21555;BME280;10938;44.794;-0.676;2022-10-20T01:18:29;100849.22;;;22.94;60.60
21555;BME280;10938;44.794;-0.676;2022-10-20T01:24:09;100827.88;;;23.67;57.86
21555;BME280;10938;44.794;-0.676;2022-10-20T01:37:51;100797.72;;;23.67;59.09
21555;BME280;10938;44.794;-0.676;2022-10-20T01:40:26;100782.03;;;23.59;58.86
21555;BME280;10938;44.794;-0.676;2022-10-20T01:42:56;100773.56;;;23.93;57.15
21555;BME280;10938;44.794;-0.676;2022-10-20T01:45:24;100763.28;;;22.69;59.71
21555;BME280;10938;44.794;-0.676;2022-10-20T01:47:52;100765.41;;;23.07;59.78
21555;BME280;10938;44.794;-0.676;2022-10-20T01:50:19;100771.00;;;22.50;60.35
21555;BME280;10938;44.794;-0.676;2022-10-20T01:52:46;100766.28;;;22.58;60.80
21555;BME280;10938;44.794;-0.676;2022-10-20T01:55:17;100762.97;;;22.01;62.26
21555;BME280;10938;44.794;-0.676;2022-10-20T02:00:23;100736.22;;;22.07;62.51
21555;BME280;10938;44.794;-0.676;2022-10-20T02:08:44;100711.84;;;21.68;62.55
21555;BME280;10938;44.794;-0.676;2022-10-20T02:13:43;100723.06;;;21.48;62.97
21555;BME280;10938;44.794;-0.676;2022-10-20T02:16:18;100720.09;;;21.31;63.43
21555;BME280;10938;44.794;-0.676;2022-10-20T02:18:45;100708.75;;;21.54;62.92
21555;BME280;10938;44.794;-0.676;2022-10-20T02:21:11;100715.81;;;19.66;67.94
21555;BME280;10938;44.794;-0.676;2022-10-20T02:23:41;100698.13;;;20.35;67.53
21555;BME280;10938;44.794;-0.676;2022-10-20T02:26:13;100714.72;;;19.36;68.66
21555;BME280;10938;44.794;-0.676;2022-10-20T02:29:28;100701.25;;;19.83;69.14
21555;BME280;10938;44.794;-0.676;2022-10-20T02:31:34;100694.25;;;22.18;65.04
21555;BME280;10938;44.794;-0.676;2022-10-20T02:34:00;100693.94;;;21.47;63.45
21555;BME280;10938;44.794;-0.676;2022-10-20T02:36:28;100677.78;;;21.27;63.17
21555;BME280;10938;44.794;-0.676;2022-10-20T02:38:54;100665.31;;;21.83;61.72
21555;BME280;10938;44.794;-0.676;2022-10-20T02:41:20;100663.00;;;22.73;60.20
21555;BME280;10938;44.794;-0.676;2022-10-20T02:43:47;100661.00;;;23.24;58.23
21555;BME280;10938;44.794;-0.676;2022-10-20T02:46:12;100632.41;;;20.79;65.16
21555;BME280;10938;44.794;-0.676;2022-10-20T02:48:39;100624.88;;;20.65;66.63
21555;BME280;10938;44.794;-0.676;2022-10-20T02:51:05;100619.44;;;20.40;66.75
21555;BME280;10938;44.794;-0.676;2022-10-20T02:53:35;100611.69;;;20.34;66.85
21555;BME280;10938;44.794;-0.676;2022-10-20T02:56:04;100617.41;;;21.07;66.90
21555;BME280;10938;44.794;-0.676;2022-10-20T02:58:30;100611.75;;;21.19;66.25
21555;BME280;10938;44.794;-0.676;2022-10-20T03:00:59;100609.66;;;20.72;66.28
21555;BME280;10938;44.794;-0.676;2022-10-20T03:03:24;100608.97;;;23.81;58.02
21555;BME280;10938;44.794;-0.676;2022-10-20T03:05:50;100609.66;;;24.84;54.79
21555;BME280;10938;44.794;-0.676;2022-10-20T03:08:16;100619.84;;;24.55;53.91
21555;BME280;10938;44.794;-0.676;2022-10-20T03:10:43;100616.09;;;24.59;52.60
21555;BME280;10938;44.794;-0.676;2022-10-20T03:13:11;100602.63;;;24.63;52.38
21555;BME280;10938;44.794;-0.676;2022-10-20T03:15:50;100609.56;;;24.85;51.71
21555;BME280;10938;44.794;-0.676;2022-10-20T03:18:18;100611.13;;;24.13;51.80
21555;BME280;10938;44.794;-0.676;2022-10-20T03:20:44;100597.66;;;25.11;50.68
21555;BME280;10938;44.794;-0.676;2022-10-20T03:23:09;100599.47;;;24.16;51.88
21555;BME280;10938;44.794;-0.676;2022-10-20T03:25:35;100597.25;;;24.25;51.19
21555;BME280;10938;44.794;-0.676;2022-10-20T03:28:04;100594.66;;;23.63;51.80
21555;BME280;10938;44.794;-0.676;2022-10-20T03:30:33;100590.34;;;24.21;51.65
21555;BME280;10938;44.794;-0.676;2022-10-20T03:33:05;100584.66;;;23.26;52.84
21555;BME280;10938;44.794;-0.676;2022-10-20T03:35:35;100584.94;;;23.19;53.67
21555;BME280;10938;44.794;-0.676;2022-10-20T03:38:03;100585.38;;;23.92;53.20
21555;BME280;10938;44.794;-0.676;2022-10-20T03:40:32;100593.50;;;23.27;53.33
21555;BME280;10938;44.794;-0.676;2022-10-20T03:42:57;100597.47;;;23.17;53.52
21555;BME280;10938;44.794;-0.676;2022-10-20T03:45:23;100608.41;;;19.23;65.41
21555;BME280;10938;44.794;-0.676;2022-10-20T03:48:03;100597.81;;;19.23;67.65
21555;BME280;10938;44.794;-0.676;2022-10-20T03:50:31;100597.66;;;18.94;68.46
21555;BME280;10938;44.794;-0.676;2022-10-20T03:53:00;100606.31;;;19.00;69.06
21555;BME280;10938;44.794;-0.676;2022-10-20T03:55:41;100607.84;;;19.47;68.77
21555;BME280;10938;44.794;-0.676;2022-10-20T03:58:07;100619.16;;;19.16;69.39
21555;BME280;10938;44.794;-0.676;2022-10-20T04:00:33;100616.47;;;19.17;69.63
21555;BME280;10938;44.794;-0.676;2022-10-20T04:03:00;100593.75;;;19.45;69.54
21555;BME280;10938;44.794;-0.676;2022-10-20T04:05:26;100606.16;;;19.07;69.49
21555;BME280;10938;44.794;-0.676;2022-10-20T04:07:52;100607.28;;;18.95;69.56
21555;BME280;10938;44.794;-0.676;2022-10-20T04:10:17;100610.22;;;19.21;69.79
21555;BME280;10938;44.794;-0.676;2022-10-20T04:12:43;100619.69;;;18.93;69.44
21555;BME280;10938;44.794;-0.676;2022-10-20T04:15:09;100617.88;;;18.95;69.70
21555;BME280;10938;44.794;-0.676;2022-10-20T04:17:35;100605.50;;;18.97;69.64
21555;BME280;10938;44.794;-0.676;2022-10-20T04:20:02;100604.41;;;19.06;70.02
21555;BME280;10938;44.794;-0.676;2022-10-20T04:22:29;100609.59;;;19.10;69.88
21555;BME280;10938;44.794;-0.676;2022-10-20T04:24:55;100608.47;;;19.20;69.66
21555;BME280;10938;44.794;-0.676;2022-10-20T04:27:20;100611.44;;;19.07;69.97
21555;BME280;10938;44.794;-0.676;2022-10-20T04:29:47;100609.09;;;18.94;69.91
21555;BME280;10938;44.794;-0.676;2022-10-20T04:32:12;100603.97;;;19.24;69.91
21555;BME280;10938;44.794;-0.676;2022-10-20T04:34:38;100598.75;;;19.58;69.81
21555;BME280;10938;44.794;-0.676;2022-10-20T04:37:06;100597.00;;;19.21;70.00
21555;BME280;10938;44.794;-0.676;2022-10-20T04:39:32;100599.84;;;19.12;70.13
21555;BME280;10938;44.794;-0.676;2022-10-20T04:41:58;100595.63;;;19.42;70.06
21555;BME280;10938;44.794;-0.676;2022-10-20T04:44:24;100588.03;;;19.27;69.83
21555;BME280;10938;44.794;-0.676;2022-10-20T04:46:53;100589.13;;;19.18;70.03
21555;BME280;10938;44.794;-0.676;2022-10-20T04:49:19;100581.91;;;18.89;70.49
21555;BME280;10938;44.794;-0.676;2022-10-20T04:51:46;100579.16;;;18.94;70.30
21555;BME280;10938;44.794;-0.676;2022-10-20T04:54:11;100570.91;;;19.08;70.41
21555;BME280;10938;44.794;-0.676;2022-10-20T04:56:37;100581.34;;;19.49;70.32
21555;BME280;10938;44.794;-0.676;2022-10-20T04:59:03;100581.88;;;19.26;70.43
21555;BME280;10938;44.794;-0.676;2022-10-20T05:01:30;100581.41;;;19.09;70.12
21555;BME280;10938;44.794;-0.676;2022-10-20T05:03:58;100572.94;;;18.95;70.45
21555;BME280;10938;44.794;-0.676;2022-10-20T05:06:39;100563.38;;;19.26;70.56
21555;BME280;10938;44.794;-0.676;2022-10-20T05:09:18;100570.59;;;19.20;70.27
21555;BME280;10938;44.794;-0.676;2022-10-20T05:11:59;100561.13;;;18.74;70.87
21555;BME280;10938;44.794;-0.676;2022-10-20T05:14:25;100552.50;;;18.66;71.25
21555;BME280;10938;44.794;-0.676;2022-10-20T05:16:53;100558.75;;;18.21;71.38
21555;BME280;10938;44.794;-0.676;2022-10-20T05:19:19;100553.19;;;18.33;71.54
21555;BME280;10938;44.794;-0.676;2022-10-20T05:21:45;100557.28;;;18.08;71.81
21555;BME280;10938;44.794;-0.676;2022-10-20T05:24:13;100549.06;;;18.21;71.90
21555;BME280;10938;44.794;-0.676;2022-10-20T05:26:39;100544.53;;;18.28;72.00
21555;BME280;10938;44.794;-0.676;2022-10-20T05:29:06;100545.03;;;18.04;72.22
21555;BME280;10938;44.794;-0.676;2022-10-20T05:31:41;100530.22;;;17.96;72.21
21555;BME280;10938;44.794;-0.676;2022-10-20T05:34:07;100540.50;;;18.09;72.72
21555;BME280;10938;44.794;-0.676;2022-10-20T05:36:33;100535.81;;;18.23;72.65
21555;BME280;10938;44.794;-0.676;2022-10-20T05:38:58;100532.38;;;18.21;72.69
21555;BME280;10938;44.794;-0.676;2022-10-20T05:41:26;100526.88;;;18.30;72.63
21555;BME280;10938;44.794;-0.676;2022-10-20T05:43:54;100518.19;;;18.25;72.74
21555;BME280;10938;44.794;-0.676;2022-10-20T05:46:25;100514.66;;;18.26;72.90
21555;BME280;10938;44.794;-0.676;2022-10-20T05:48:53;100514.31;;;18.01;72.96
21555;BME280;10938;44.794;-0.676;2022-10-20T05:51:23;100504.50;;;18.08;73.12
21555;BME280;10938;44.794;-0.676;2022-10-20T05:53:50;100498.34;;;18.07;73.49
21555;BME280;10938;44.794;-0.676;2022-10-20T05:56:19;100502.22;;;17.91;73.39
21555;BME280;10938;44.794;-0.676;2022-10-20T05:59:08;100492.75;;;17.81;73.63
21555;BME280;10938;44.794;-0.676;2022-10-20T06:01:50;100497.91;;;17.85;73.87
21555;BME280;10938;44.794;-0.676;2022-10-20T06:04:26;100483.53;;;18.00;74.20
21555;BME280;10938;44.794;-0.676;2022-10-20T06:07:02;100492.78;;;18.21;74.23
21555;BME280;10938;44.794;-0.676;2022-10-20T06:09:31;100483.91;;;18.23;74.12
21555;BME280;10938;44.794;-0.676;2022-10-20T06:12:02;100487.25;;;18.31;74.22
21555;BME280;10938;44.794;-0.676;2022-10-20T06:14:40;100476.91;;;18.22;74.41
21555;BME280;10938;44.794;-0.676;2022-10-20T06:17:35;100481.50;;;18.14;74.72
21555;BME280;10938;44.794;-0.676;2022-10-20T06:20:01;100488.75;;;18.05;74.89
21555;BME280;10938;44.794;-0.676;2022-10-20T06:22:26;100476.81;;;18.25;75.00
21555;BME280;10938;44.794;-0.676;2022-10-20T06:24:52;100479.28;;;18.73;74.69
21555;BME280;10938;44.794;-0.676;2022-10-20T06:27:18;100482.59;;;18.42;74.85
21555;BME280;10938;44.794;-0.676;2022-10-20T06:29:43;100482.31;;;18.56;74.90
21555;BME280;10938;44.794;-0.676;2022-10-20T06:32:14;100480.25;;;18.69;74.73
21555;BME280;10938;44.794;-0.676;2022-10-20T06:34:42;100473.69;;;18.85;74.75
21555;BME280;10938;44.794;-0.676;2022-10-20T06:37:08;100464.38;;;18.70;74.57
21555;BME280;10938;44.794;-0.676;2022-10-20T06:39:34;100479.50;;;18.64;74.41
21555;BME280;10938;44.794;-0.676;2022-10-20T06:42:00;100468.34;;;18.88;74.42
21555;BME280;10938;44.794;-0.676;2022-10-20T06:44:26;100466.22;;;19.02;74.53
21555;BME280;10938;44.794;-0.676;2022-10-20T06:46:52;100469.84;;;18.98;74.27
21555;BME280;10938;44.794;-0.676;2022-10-20T06:49:19;100470.56;;;19.05;74.72
21555;BME280;10938;44.794;-0.676;2022-10-20T06:51:45;100464.44;;;19.02;75.50
21555;BME280;10938;44.794;-0.676;2022-10-20T06:54:11;100469.91;;;18.95;76.66
21555;BME280;10938;44.794;-0.676;2022-10-20T06:56:38;100474.09;;;19.03;77.64
21555;BME280;10938;44.794;-0.676;2022-10-20T06:59:03;100466.34;;;19.31;78.78
21555;BME280;10938;44.794;-0.676;2022-10-20T07:01:34;100473.00;;;19.46;80.03
21555;BME280;10938;44.794;-0.676;2022-10-20T07:04:02;100471.16;;;19.49;81.07
21555;BME280;10938;44.794;-0.676;2022-10-20T07:06:35;100477.97;;;19.24;82.68
21555;BME280;10938;44.794;-0.676;2022-10-20T07:09:04;100483.22;;;19.58;83.91
21555;BME280;10938;44.794;-0.676;2022-10-20T07:11:36;100484.75;;;19.34;84.90
21555;BME280;10938;44.794;-0.676;2022-10-20T07:14:03;100489.41;;;19.59;86.56
21555;BME280;10938;44.794;-0.676;2022-10-20T07:16:30;100481.47;;;19.59;87.97
21555;BME280;10938;44.794;-0.676;2022-10-20T07:19:00;100491.97;;;19.28;89.00
21555;BME280;10938;44.794;-0.676;2022-10-20T07:21:27;100497.84;;;19.39;89.64
21555;BME280;10938;44.794;-0.676;2022-10-20T07:23:53;100494.41;;;19.35;91.75
21555;BME280;10938;44.794;-0.676;2022-10-20T07:26:25;100509.69;;;19.24;93.53
21555;BME280;10938;44.794;-0.676;2022-10-20T07:28:53;100526.75;;;19.48;94.81
21555;BME280;10938;44.794;-0.676;2022-10-20T07:31:24;100585.84;;;21.27;94.38
21555;BME280;10938;44.794;-0.676;2022-10-20T07:33:50;100603.41;;;22.55;88.97
21555;BME280;10938;44.794;-0.676;2022-10-20T07:36:22;100588.06;;;24.12;81.57
21555;BME280;10938;44.794;-0.676;2022-10-20T07:38:54;100560.19;;;23.60;76.16
21555;BME280;10938;44.794;-0.676;2022-10-20T07:41:20;100544.44;;;23.34;74.93
21555;BME280;10938;44.794;-0.676;2022-10-20T07:43:45;100538.16;;;22.93;75.47
21555;BME280;10938;44.794;-0.676;2022-10-20T07:46:11;100537.31;;;22.24;75.79
21555;BME280;10938;44.794;-0.676;2022-10-20T07:48:38;100543.53;;;22.00;78.51
21555;BME280;10938;44.794;-0.676;2022-10-20T07:53:41;100551.31;;;22.51;79.57
21555;BME280;10938;44.794;-0.676;2022-10-20T07:56:07;100534.69;;;22.91;79.90
21555;BME280;10938;44.794;-0.676;2022-10-20T07:58:32;100544.81;;;23.25;80.59
21555;BME280;10938;44.794;-0.676;2022-10-20T08:00:58;100542.47;;;23.17;79.83
21555;BME280;10938;44.794;-0.676;2022-10-20T08:03:23;100547.00;;;23.35;78.90
21555;BME280;10938;44.794;-0.676;2022-10-20T08:05:50;100524.66;;;22.76;78.57
21555;BME280;10938;44.794;-0.676;2022-10-20T08:08:16;100529.13;;;22.75;79.61
21555;BME280;10938;44.794;-0.676;2022-10-20T08:10:42;100526.56;;;22.27;80.07
21555;BME280;10938;44.794;-0.676;2022-10-20T08:13:07;100534.63;;;22.47;81.73
21555;BME280;10938;44.794;-0.676;2022-10-20T08:15:33;100537.63;;;22.62;82.13
21555;BME280;10938;44.794;-0.676;2022-10-20T08:17:58;100532.72;;;22.96;81.64
21555;BME280;10938;44.794;-0.676;2022-10-20T08:20:24;100528.50;;;22.69;81.27
21555;BME280;10938;44.794;-0.676;2022-10-20T08:22:50;100528.50;;;22.69;81.39
21555;BME280;10938;44.794;-0.676;2022-10-20T08:25:15;100520.59;;;22.44;82.77
21555;BME280;10938;44.794;-0.676;2022-10-20T08:27:41;100515.19;;;22.69;82.92
21555;BME280;10938;44.794;-0.676;2022-10-20T08:30:07;100527.31;;;23.19;83.22
21555;BME280;10938;44.794;-0.676;2022-10-20T08:32:33;100520.84;;;22.83;82.44
21555;BME280;10938;44.794;-0.676;2022-10-20T08:34:58;100515.66;;;23.01;83.27
21555;BME280;10938;44.794;-0.676;2022-10-20T08:37:24;100517.50;;;22.99;82.61
21555;BME280;10938;44.794;-0.676;2022-10-20T08:39:50;100516.56;;;23.83;83.23
21555;BME280;10938;44.794;-0.676;2022-10-20T08:44:44;100518.66;;;23.76;81.42
21555;BME280;10938;44.794;-0.676;2022-10-20T08:47:40;100519.72;;;23.72;81.27
21555;BME280;10938;44.794;-0.676;2022-10-20T08:50:05;100512.41;;;23.96;81.13
21555;BME280;10938;44.794;-0.676;2022-10-20T08:52:34;100511.06;;;23.47;80.45
21555;BME280;10938;44.794;-0.676;2022-10-20T08:55:05;100510.81;;;24.12;80.42
21555;BME280;10938;44.794;-0.676;2022-10-20T08:57:31;100519.56;;;24.53;81.02
21555;BME280;10938;44.794;-0.676;2022-10-20T09:02:42;100493.47;;;24.59;78.83
21555;BME280;10938;44.794;-0.676;2022-10-20T09:05:09;100504.03;;;25.33;78.74
21555;BME280;10938;44.794;-0.676;2022-10-20T09:07:37;100490.53;;;25.01;78.45
21555;BME280;10938;44.794;-0.676;2022-10-20T09:10:17;100495.25;;;24.78;77.03
21555;BME280;10938;44.794;-0.676;2022-10-20T09:12:46;100489.09;;;24.76;77.33
21555;BME280;10938;44.794;-0.676;2022-10-20T09:15:15;100493.88;;;24.69;77.15
21555;BME280;10938;44.794;-0.676;2022-10-20T09:17:45;100497.06;;;24.58;76.43
21555;BME280;10938;44.794;-0.676;2022-10-20T09:20:22;100494.91;;;25.02;76.99
21555;BME280;10938;44.794;-0.676;2022-10-20T09:22:48;100490.47;;;25.20;76.12
21555;BME280;10938;44.794;-0.676;2022-10-20T09:25:17;100495.88;;;25.36;76.71
21555;BME280;10938;44.794;-0.676;2022-10-20T09:27:43;100490.97;;;24.38;75.75
21555;BME280;10938;44.794;-0.676;2022-10-20T09:30:35;100494.53;;;25.10;78.18
21555;BME280;10938;44.794;-0.676;2022-10-20T09:33:20;100484.66;;;24.95;76.60
21555;BME280;10938;44.794;-0.676;2022-10-20T09:35:47;100493.41;;;25.83;76.65
21555;BME280;10938;44.794;-0.676;2022-10-20T09:40:45;100487.69;;;25.90;74.60
21555;BME280;10938;44.794;-0.676;2022-10-20T09:43:18;100486.91;;;26.21;74.64
21555;BME280;10938;44.794;-0.676;2022-10-20T09:46:07;100487.31;;;25.81;73.32
21555;BME280;10938;44.794;-0.676;2022-10-20T09:48:45;100479.94;;;25.34;73.28
21555;BME280;10938;44.794;-0.676;2022-10-20T09:51:19;100482.56;;;25.86;72.43
21555;BME280;10938;44.794;-0.676;2022-10-20T09:56:10;100486.22;;;25.33;72.27
21555;BME280;10938;44.794;-0.676;2022-10-20T09:58:37;100484.50;;;25.15;72.79
21555;BME280;10938;44.794;-0.676;2022-10-20T10:01:05;100479.06;;;25.85;72.79
21555;BME280;10938;44.794;-0.676;2022-10-20T10:03:50;100471.91;;;26.50;70.90
21555;BME280;10938;44.794;-0.676;2022-10-20T10:06:30;100477.34;;;26.00;71.23
21555;BME280;10938;44.794;-0.676;2022-10-20T10:08:59;100479.69;;;26.06;70.30
21555;BME280;10938;44.794;-0.676;2022-10-20T10:11:32;100479.25;;;25.98;70.18
21555;BME280;10938;44.794;-0.676;2022-10-20T10:13:59;100476.91;;;25.42;70.20
21555;BME280;10938;44.794;-0.676;2022-10-20T10:16:24;100483.91;;;25.94;70.93
21555;BME280;10938;44.794;-0.676;2022-10-20T10:18:59;100481.75;;;25.68;71.75
21555;BME280;10938;44.794;-0.676;2022-10-20T10:21:26;100471.69;;;24.87;73.73
21555;BME280;10938;44.794;-0.676;2022-10-20T10:23:55;100465.81;;;25.32;73.26
21555;BME280;10938;44.794;-0.676;2022-10-20T10:29:02;100461.28;;;27.25;69.39
21555;BME280;10938;44.794;-0.676;2022-10-20T10:31:28;100469.81;;;27.02;66.64
21555;BME280;10938;44.794;-0.676;2022-10-20T10:36:38;100454.25;;;27.08;66.61
21555;BME280;10938;44.794;-0.676;2022-10-20T10:39:09;100463.19;;;26.78;67.44
21555;BME280;10938;44.794;-0.676;2022-10-20T10:41:58;100470.19;;;25.85;69.26
21555;BME280;10938;44.794;-0.676;2022-10-20T10:44:40;100465.66;;;25.35;71.76
21555;BME280;10938;44.794;-0.676;2022-10-20T10:49:41;100469.91;;;25.89;71.30
21555;BME280;10938;44.794;-0.676;2022-10-20T10:52:39;100480.72;;;26.03;70.83
21555;BME280;10938;44.794;-0.676;2022-10-20T10:55:20;100473.97;;;26.29;71.48
21555;BME280;10938;44.794;-0.676;2022-10-20T11:01:22;100483.69;;;25.82;73.85
21555;BME280;10938;44.794;-0.676;2022-10-20T11:06:59;100480.53;;;26.39;73.86
21555;BME280;10938;44.794;-0.676;2022-10-20T11:12:40;100492.19;;;26.38;78.58
21555;BME280;10938;44.794;-0.676;2022-10-20T11:18:10;100466.84;;;25.64;82.43
21555;BME280;10938;44.794;-0.676;2022-10-20T11:23:56;100436.16;;;26.04;79.38
21555;BME280;10938;44.794;-0.676;2022-10-20T11:28:46;100426.69;;;26.14;73.11
21555;BME280;10938;44.794;-0.676;2022-10-20T11:31:19;100427.03;;;26.08;72.85
21555;BME280;10938;44.794;-0.676;2022-10-20T11:33:51;100412.16;;;26.35;72.03
21555;BME280;10938;44.794;-0.676;2022-10-20T11:36:20;100420.75;;;26.40;71.24
21555;BME280;10938;44.794;-0.676;2022-10-20T11:38:55;100416.88;;;26.15;69.69
21555;BME280;10938;44.794;-0.676;2022-10-20T11:41:30;100394.16;;;27.28;69.38
21555;BME280;10938;44.794;-0.676;2022-10-20T11:44:01;100392.78;;;27.07;67.51
21555;BME280;10938;44.794;-0.676;2022-10-20T11:46:36;100386.28;;;27.55;66.85
21555;BME280;10938;44.794;-0.676;2022-10-20T11:49:03;100390.34;;;27.02;67.49
21555;BME280;10938;44.794;-0.676;2022-10-20T11:59:47;100398.41;;;28.71;63.47
21555;BME280;10938;44.794;-0.676;2022-10-20T12:11:17;100362.88;;;27.43;54.09
21555;BME280;10938;44.794;-0.676;2022-10-20T12:19:22;100337.13;;;27.97;52.87
21555;BME280;10938;44.794;-0.676;2022-10-20T12:22:55;100340.63;;;27.56;54.19
21555;BME280;10938;44.794;-0.676;2022-10-20T12:34:55;100317.47;;;27.70;51.21
21555;BME280;10938;44.794;-0.676;2022-10-20T12:39:53;100317.19;;;27.32;50.24
21555;BME280;10938;44.794;-0.676;2022-10-20T12:44:50;100313.34;;;28.85;49.59
21555;BME280;10938;44.794;-0.676;2022-10-20T12:47:24;100315.81;;;29.13;47.43
21555;BME280;10938;44.794;-0.676;2022-10-20T12:50:05;100314.28;;;28.97;46.36
21555;BME280;10938;44.794;-0.676;2022-10-20T12:52:37;100310.84;;;28.82;45.45
21555;BME280;10938;44.794;-0.676;2022-10-20T12:57:38;100292.94;;;29.21;48.07
21555;BME280;10938;44.794;-0.676;2022-10-20T13:02:50;100277.66;;;29.46;43.48
21555;BME280;10938;44.794;-0.676;2022-10-20T13:15:53;100279.34;;;30.09;40.66
21555;BME280;10938;44.794;-0.676;2022-10-20T13:18:43;100273.91;;;30.33;41.96
21555;BME280;10938;44.794;-0.676;2022-10-20T13:21:25;100274.66;;;31.04;41.70
21555;BME280;10938;44.794;-0.676;2022-10-20T13:24:14;100260.94;;;30.50;38.31
21555;BME280;10938;44.794;-0.676;2022-10-20T13:26:49;100257.84;;;30.44;39.10
21555;BME280;10938;44.794;-0.676;2022-10-20T13:29:36;100255.69;;;30.25;41.11
21555;BME280;10938;44.794;-0.676;2022-10-20T13:43:24;100239.09;;;29.84;38.07
21555;BME280;10938;44.794;-0.676;2022-10-20T13:46:04;100239.56;;;29.65;39.85
21555;BME280;10938;44.794;-0.676;2022-10-20T13:51:27;100246.19;;;29.48;40.83
21555;BME280;10938;44.794;-0.676;2022-10-20T13:53:59;100245.72;;;29.54;39.80
21555;BME280;10938;44.794;-0.676;2022-10-20T13:56:46;100248.28;;;29.56;37.40
21555;BME280;10938;44.794;-0.676;2022-10-20T14:01:38;100234.91;;;30.62;36.74
21555;BME280;10938;44.794;-0.676;2022-10-20T14:04:24;100247.34;;;30.98;35.25
21555;BME280;10938;44.794;-0.676;2022-10-20T14:06:50;100233.63;;;31.01;36.97
21555;BME280;10938;44.794;-0.676;2022-10-20T14:09:18;100241.09;;;31.42;37.74
21555;BME280;10938;44.794;-0.676;2022-10-20T14:11:46;100230.19;;;31.43;37.44
21555;BME280;10938;44.794;-0.676;2022-10-20T14:14:16;100225.63;;;31.77;36.59
21555;BME280;10938;44.794;-0.676;2022-10-20T14:16:56;100225.78;;;31.42;35.85
21555;BME280;10938;44.794;-0.676;2022-10-20T14:19:23;100236.41;;;30.77;37.32
21555;BME280;10938;44.794;-0.676;2022-10-20T14:21:54;100254.81;;;30.59;36.78
21555;BME280;10938;44.794;-0.676;2022-10-20T14:24:41;100252.06;;;30.72;34.95
21555;BME280;10938;44.794;-0.676;2022-10-20T14:27:14;100240.78;;;30.32;35.40
21555;BME280;10938;44.794;-0.676;2022-10-20T14:29:41;100246.13;;;29.61;36.58
21555;BME280;10938;44.794;-0.676;2022-10-20T14:32:13;100243.78;;;29.56;35.03
21555;BME280;10938;44.794;-0.676;2022-10-20T14:34:56;100246.28;;;30.31;35.37
21555;BME280;10938;44.794;-0.676;2022-10-20T14:37:35;100244.41;;;29.96;34.30
21555;BME280;10938;44.794;-0.676;2022-10-20T14:40:05;100244.91;;;29.78;35.63
21555;BME280;10938;44.794;-0.676;2022-10-20T14:42:32;100245.19;;;29.86;35.13
21555;BME280;10938;44.794;-0.676;2022-10-20T14:45:00;100246.47;;;29.93;33.65
21555;BME280;10938;44.794;-0.676;2022-10-20T14:47:37;100238.69;;;30.01;34.32
21555;BME280;10938;44.794;-0.676;2022-10-20T14:50:04;100246.47;;;30.40;35.13
21555;BME280;10938;44.794;-0.676;2022-10-20T14:52:32;100244.09;;;29.64;33.97
21555;BME280;10938;44.794;-0.676;2022-10-20T14:55:00;100245.34;;;30.08;35.64
21555;BME280;10938;44.794;-0.676;2022-10-20T14:57:29;100249.78;;;30.44;35.12
21555;BME280;10938;44.794;-0.676;2022-10-20T15:00:00;100248.19;;;30.41;34.73
21555;BME280;10938;44.794;-0.676;2022-10-20T15:02:45;100244.69;;;30.52;35.34
21555;BME280;10938;44.794;-0.676;2022-10-20T15:05:40;100254.44;;;30.29;34.31
21555;BME280;10938;44.794;-0.676;2022-10-20T15:08:20;100244.84;;;30.84;34.74
21555;BME280;10938;44.794;-0.676;2022-10-20T15:10:48;100255.88;;;30.81;35.82
21555;BME280;10938;44.794;-0.676;2022-10-20T15:15:50;100252.16;;;30.71;35.87
21555;BME280;10938;44.794;-0.676;2022-10-20T15:18:17;100247.31;;;30.41;34.61
21555;BME280;10938;44.794;-0.676;2022-10-20T15:20:49;100251.16;;;30.60;35.44
21555;BME280;10938;44.794;-0.676;2022-10-20T15:23:20;100246.56;;;30.85;34.22